createdAt,value
2022-12-01T00:01:19.389Z,6.30
2022-12-01T00:03:48.221Z,6.32
2022-12-01T00:06:17.866Z,6.35
2022-12-01T00:09:08.110Z,6.35
2022-12-01T00:11:37.352Z,6.33
2022-12-01T00:14:06.830Z,6.30
2022-12-01T00:16:36.233Z,6.34
2022-12-01T00:19:03.006Z,6.32
2022-12-01T00:21:29.574Z,6.32
2022-12-01T00:23:57.641Z,6.33
2022-12-01T00:26:25.229Z,6.33
2022-12-01T00:28:53.561Z,6.34
2022-12-01T00:31:20.797Z,6.38
2022-12-01T00:33:47.437Z,6.32
2022-12-01T00:36:14.032Z,6.29
2022-12-01T00:38:40.545Z,6.30
2022-12-01T00:41:07.665Z,6.32
2022-12-01T00:43:34.192Z,6.31
2022-12-01T00:46:00.960Z,6.31
2022-12-01T00:48:27.955Z,6.25
2022-12-01T00:50:55.360Z,6.25
2022-12-01T00:53:22.140Z,6.33
2022-12-01T00:55:49.098Z,6.33
2022-12-01T00:58:15.708Z,6.28
2022-12-01T01:00:45.248Z,6.29
2022-12-01T01:03:11.833Z,6.28
2022-12-01T01:05:39.925Z,6.29
2022-12-01T01:08:10.006Z,6.32
2022-12-01T01:10:44.615Z,6.32
2022-12-01T01:13:12.140Z,6.28
2022-12-01T01:15:38.778Z,6.32
2022-12-01T01:18:06.044Z,6.24
2022-12-01T01:20:35.226Z,6.30
2022-12-01T01:23:01.792Z,6.32
2022-12-01T01:25:31.246Z,6.30
2022-12-01T01:28:00.080Z,6.33
2022-12-01T01:30:26.819Z,6.35
2022-12-01T01:32:58.322Z,6.31
2022-12-01T01:35:24.848Z,6.29
2022-12-01T01:37:51.876Z,6.33
2022-12-01T01:40:18.808Z,6.33
2022-12-01T01:42:45.628Z,6.28
2022-12-01T01:45:24.503Z,6.28
2022-12-01T01:47:53.797Z,6.31
2022-12-01T01:50:26.736Z,6.30
2022-12-01T01:52:59.729Z,6.32
2022-12-01T01:55:27.359Z,6.19
2022-12-01T01:57:54.048Z,6.33
2022-12-01T02:00:22.235Z,6.29
2022-12-01T02:02:54.339Z,6.22
2022-12-01T02:05:28.014Z,6.33
2022-12-01T02:07:57.238Z,6.29
2022-12-01T02:10:51.599Z,6.36
2022-12-01T02:13:27.802Z,6.34
2022-12-01T02:16:11.556Z,6.34
2022-12-01T02:18:59.715Z,6.30
2022-12-01T02:21:52.883Z,6.35
2022-12-01T02:24:54.077Z,6.30
2022-12-01T02:27:56.188Z,6.33
2022-12-01T02:30:51.218Z,6.33
2022-12-01T02:33:29.470Z,6.25
2022-12-01T02:36:23.130Z,6.27
2022-12-01T02:39:07.239Z,6.26
2022-12-01T02:42:03.501Z,6.27
2022-12-01T02:44:39.002Z,6.30
2022-12-01T02:47:12.963Z,6.29
2022-12-01T02:49:45.156Z,6.21
2022-12-01T02:52:14.258Z,6.25
2022-12-01T02:54:42.869Z,6.32
2022-12-01T02:57:12.692Z,6.34
2022-12-01T02:59:42.485Z,6.30
2022-12-01T03:02:42.148Z,6.34
2022-12-01T03:05:23.995Z,6.33
2022-12-01T03:08:04.132Z,6.34
2022-12-01T03:10:52.677Z,6.34
2022-12-01T03:13:43.208Z,6.33
2022-12-01T03:16:22.285Z,6.26
2022-12-01T03:19:00.434Z,6.32
2022-12-01T03:21:37.860Z,6.30
2022-12-01T03:24:09.137Z,6.30
2022-12-01T03:26:37.696Z,6.25
2022-12-01T03:29:20.528Z,6.28
2022-12-01T03:31:55.193Z,6.27
2022-12-01T03:34:30.550Z,6.23
2022-12-01T03:37:02.141Z,6.26
2022-12-01T03:39:35.235Z,6.22
2022-12-01T03:42:20.649Z,6.18
2022-12-01T03:45:01.139Z,6.25
2022-12-01T03:47:32.519Z,6.28
2022-12-01T03:50:00.545Z,6.27
2022-12-01T03:53:06.108Z,6.31
2022-12-01T03:55:40.829Z,6.28
2022-12-01T03:58:17.573Z,6.30
2022-12-01T04:00:46.405Z,6.28
2022-12-01T04:03:23.068Z,6.24
2022-12-01T04:05:49.757Z,6.28
2022-12-01T04:08:16.300Z,6.19
2022-12-01T04:10:43.279Z,6.33
2022-12-01T04:13:16.821Z,6.32
2022-12-01T04:15:43.734Z,6.30
2022-12-01T04:18:12.552Z,6.19
2022-12-01T04:20:39.096Z,6.28
2022-12-01T04:23:05.667Z,6.12
2022-12-01T04:25:32.238Z,6.23
2022-12-01T04:27:58.766Z,6.28
2022-12-01T04:30:25.374Z,6.26
2022-12-01T04:32:52.006Z,6.26
2022-12-01T04:35:18.583Z,6.20
2022-12-01T04:37:47.446Z,6.20
2022-12-01T04:40:14.105Z,6.19
2022-12-01T04:42:40.681Z,6.20
2022-12-01T04:45:07.792Z,6.18
2022-12-01T04:47:34.305Z,6.20
2022-12-01T04:50:03.337Z,6.21
2022-12-01T04:52:35.090Z,6.22
2022-12-01T04:55:04.605Z,6.22
2022-12-01T04:57:31.156Z,6.16
2022-12-01T04:59:57.757Z,6.23
2022-12-01T05:02:24.379Z,6.22
2022-12-01T05:04:51.012Z,6.21
2022-12-01T05:07:18.247Z,6.16
2022-12-01T05:09:44.793Z,6.01
2022-12-01T05:12:13.670Z,6.18
2022-12-01T05:14:40.188Z,6.19
2022-12-01T05:17:06.725Z,6.20
2022-12-01T05:19:51.864Z,6.17
2022-12-01T05:22:26.936Z,6.19
2022-12-01T05:25:07.487Z,6.18
2022-12-01T05:27:34.033Z,6.19
2022-12-01T05:30:00.535Z,6.19
2022-12-01T05:32:27.339Z,6.11
2022-12-01T05:34:53.821Z,6.10
2022-12-01T05:37:20.371Z,6.18
2022-12-01T05:39:47.232Z,6.19
2022-12-01T05:42:13.914Z,6.11
2022-12-01T05:44:40.458Z,6.17
2022-12-01T05:47:07.040Z,6.12
2022-12-01T05:49:33.524Z,6.19
2022-12-01T05:52:00.110Z,6.17
2022-12-01T05:54:31.658Z,6.11
2022-12-01T05:56:58.270Z,6.13
2022-12-01T05:59:26.873Z,6.17
2022-12-01T06:01:53.555Z,6.16
2022-12-01T06:04:20.289Z,6.20
2022-12-01T06:06:48.916Z,6.15
2022-12-01T06:09:18.316Z,6.11
2022-12-01T06:11:47.192Z,6.18
2022-12-01T06:14:15.609Z,6.16
2022-12-01T06:16:42.280Z,6.21
2022-12-01T06:19:08.817Z,6.20
2022-12-01T06:21:35.367Z,6.15
2022-12-01T06:24:01.912Z,6.19
2022-12-01T06:26:28.429Z,6.23
2022-12-01T06:28:58.437Z,6.26
2022-12-01T06:31:24.963Z,6.25
2022-12-01T06:33:51.591Z,6.27
2022-12-01T06:36:18.313Z,6.22
2022-12-01T06:38:44.980Z,6.25
2022-12-01T06:41:11.588Z,6.25
2022-12-01T06:43:38.313Z,6.30
2022-12-01T06:46:05.846Z,6.21
2022-12-01T06:48:32.707Z,6.26
2022-12-01T06:51:02.281Z,6.30
2022-12-01T06:53:29.145Z,6.30
2022-12-01T06:56:03.722Z,6.29
2022-12-01T06:58:32.881Z,6.30
2022-12-01T07:01:00.009Z,6.24
2022-12-01T07:03:27.425Z,6.22
2022-12-01T07:05:59.280Z,6.26
2022-12-01T07:08:31.336Z,6.21
2022-12-01T07:11:10.141Z,6.23
2022-12-01T07:13:40.571Z,6.25
2022-12-01T07:16:10.493Z,6.23
2022-12-01T07:19:09.938Z,6.22
2022-12-01T07:21:41.026Z,6.20
2022-12-01T07:24:22.671Z,6.26
2022-12-01T07:26:50.816Z,6.19
2022-12-01T07:29:19.724Z,6.23
2022-12-01T07:31:50.411Z,6.21
2022-12-01T07:34:18.352Z,6.22
2022-12-01T07:36:49.683Z,6.20
2022-12-01T07:39:16.325Z,6.10
2022-12-01T07:41:43.082Z,6.09
2022-12-01T07:44:11.177Z,6.23
2022-12-01T07:46:40.386Z,6.12
2022-12-01T07:49:08.080Z,6.22
2022-12-01T07:51:35.114Z,6.17
2022-12-01T07:54:03.893Z,6.22
2022-12-01T07:56:33.916Z,6.17
2022-12-01T07:59:02.771Z,6.42
2022-12-01T08:01:30.119Z,6.34
2022-12-01T08:03:59.215Z,6.23
2022-12-01T08:06:26.834Z,6.18
2022-12-01T08:08:53.344Z,6.10
2022-12-01T08:11:26.048Z,6.07
2022-12-01T08:13:53.928Z,6.05
2022-12-01T08:16:22.932Z,6.00
2022-12-01T08:18:50.372Z,6.28
2022-12-01T08:21:19.222Z,6.16
2022-12-01T08:23:46.055Z,6.20
2022-12-01T08:26:15.333Z,6.23
2022-12-01T08:28:42.983Z,6.22
2022-12-01T08:31:22.027Z,6.25
2022-12-01T08:33:50.630Z,6.33
2022-12-01T08:36:17.766Z,6.33
2022-12-01T08:38:45.842Z,6.35
2022-12-01T08:41:13.536Z,6.38
2022-12-01T08:43:57.251Z,6.36
2022-12-01T08:46:26.106Z,6.40
2022-12-01T08:48:55.135Z,6.34
2022-12-01T08:51:21.944Z,6.39
2022-12-01T08:53:49.789Z,6.39
2022-12-01T08:56:24.836Z,6.39
2022-12-01T08:58:51.786Z,6.39
2022-12-01T09:01:19.470Z,6.42
2022-12-01T09:03:46.496Z,6.43
2022-12-01T09:06:13.024Z,6.45
2022-12-01T09:08:40.045Z,6.38
2022-12-01T09:11:17.964Z,6.43
2022-12-01T09:13:49.944Z,6.47
2022-12-01T09:16:19.773Z,6.47
2022-12-01T09:18:47.859Z,6.46
2022-12-01T09:21:17.490Z,6.49
2022-12-01T09:23:44.980Z,6.38
2022-12-01T09:26:13.871Z,6.57
2022-12-01T09:28:41.032Z,6.62
2022-12-01T09:31:10.548Z,6.66
2022-12-01T09:33:38.213Z,6.73
2022-12-01T09:36:06.577Z,6.74
2022-12-01T09:38:38.738Z,6.88
2022-12-01T09:41:27.191Z,6.90
2022-12-01T09:44:12.170Z,6.89
2022-12-01T09:46:52.397Z,6.91
2022-12-01T09:49:27.377Z,6.93
2022-12-01T09:52:18.645Z,7.01
2022-12-01T09:54:50.364Z,7.04
2022-12-01T09:57:33.961Z,7.12
2022-12-01T10:00:35.033Z,7.19
2022-12-01T10:03:21.457Z,7.18
2022-12-01T10:06:29.031Z,7.22
2022-12-01T10:09:17.287Z,7.22
2022-12-01T10:11:46.141Z,7.14
2022-12-01T10:14:20.167Z,7.08
2022-12-01T10:17:15.991Z,6.91
2022-12-01T10:19:47.255Z,6.83
2022-12-01T10:22:26.921Z,6.88
2022-12-01T10:25:13.690Z,6.99
2022-12-01T10:28:23.989Z,7.06
2022-12-01T10:30:52.681Z,7.18
2022-12-01T10:33:30.545Z,7.28
2022-12-01T10:35:57.844Z,7.36
2022-12-01T10:38:34.487Z,7.43
2022-12-01T10:41:04.378Z,7.42
2022-12-01T10:43:50.359Z,7.40
2022-12-01T10:46:25.201Z,7.42
2022-12-01T10:48:57.498Z,7.49
2022-12-01T10:51:28.109Z,7.69
2022-12-01T10:54:00.102Z,7.71
2022-12-01T10:56:29.215Z,7.65
2022-12-01T10:58:58.476Z,7.65
2022-12-01T11:01:27.618Z,7.61
2022-12-01T11:04:08.881Z,7.62
2022-12-01T11:06:37.561Z,7.71
2022-12-01T11:09:14.694Z,7.62
2022-12-01T11:11:41.452Z,7.52
2022-12-01T11:14:19.829Z,7.44
2022-12-01T11:16:48.648Z,7.35
2022-12-01T11:19:34.610Z,7.26
2022-12-01T11:22:12.937Z,7.06
2022-12-01T11:24:42.322Z,7.23
2022-12-01T11:27:16.682Z,7.29
2022-12-01T11:29:43.782Z,7.41
2022-12-01T11:32:17.865Z,7.45
2022-12-01T11:34:51.524Z,7.58
2022-12-01T11:37:21.662Z,7.62
2022-12-01T11:39:49.711Z,7.69
2022-12-01T11:42:16.475Z,7.85
2022-12-01T11:45:08.062Z,8.03
2022-12-01T11:47:34.640Z,8.38
2022-12-01T11:50:22.514Z,8.52
2022-12-01T11:52:49.115Z,8.37
2022-12-01T11:55:15.636Z,8.32
2022-12-01T11:57:44.732Z,8.21
2022-12-01T12:00:26.948Z,8.17
2022-12-01T12:03:20.243Z,8.17
2022-12-01T12:06:11.633Z,8.14
2022-12-01T12:08:57.753Z,7.97
2022-12-01T12:11:30.147Z,8.11
2022-12-01T12:14:02.615Z,8.10
2022-12-01T12:16:51.916Z,8.08
2022-12-01T12:20:06.037Z,8.09
2022-12-01T12:22:41.764Z,8.04
2022-12-01T12:25:23.123Z,8.00
2022-12-01T12:28:19.604Z,7.94
2022-12-01T12:31:05.722Z,7.94
2022-12-01T12:33:42.996Z,7.93
2022-12-01T12:36:37.845Z,7.95
2022-12-01T12:39:24.752Z,7.96
2022-12-01T12:41:55.930Z,7.91
2022-12-01T12:44:47.653Z,7.88
2022-12-01T12:47:57.861Z,7.89
2022-12-01T12:50:51.972Z,7.89
2022-12-01T12:53:22.351Z,7.81
2022-12-01T12:55:52.980Z,7.83
2022-12-01T12:58:26.404Z,7.87
2022-12-01T13:01:05.311Z,7.89
2022-12-01T13:03:57.135Z,7.88
2022-12-01T13:06:36.358Z,7.90
2022-12-01T13:09:11.446Z,7.88
2022-12-01T13:11:59.878Z,7.85
2022-12-01T13:14:36.015Z,7.89
2022-12-01T13:17:33.612Z,7.88
2022-12-01T13:20:00.317Z,7.90
2022-12-01T13:22:36.013Z,7.83
2022-12-01T13:25:03.823Z,7.82
2022-12-01T13:27:34.768Z,7.81
2022-12-01T13:30:02.159Z,7.84
2022-12-01T13:32:32.093Z,7.86
2022-12-01T13:35:00.560Z,7.86
2022-12-01T13:37:36.190Z,7.85
2022-12-01T13:40:32.643Z,7.85
2022-12-01T13:43:10.662Z,7.82
2022-12-01T13:45:46.665Z,7.83
2022-12-01T13:52:25.029Z,7.78
2022-12-01T13:55:25.779Z,7.78
2022-12-01T13:58:00.981Z,7.74
2022-12-01T14:00:38.009Z,7.70
2022-12-01T14:06:25.161Z,7.66
2022-12-01T14:09:03.575Z,7.67
2022-12-01T14:11:32.577Z,7.59
2022-12-01T14:14:03.743Z,7.67
2022-12-01T14:16:51.798Z,7.67
2022-12-01T14:19:40.678Z,7.48
2022-12-01T14:22:27.833Z,7.59
2022-12-01T14:24:55.642Z,7.53
2022-12-01T14:27:43.205Z,7.55
2022-12-01T14:30:46.999Z,7.52
2022-12-01T14:33:47.782Z,7.49
2022-12-01T14:36:23.874Z,7.47
2022-12-01T14:38:59.869Z,7.45
2022-12-01T14:41:28.539Z,7.42
2022-12-01T14:44:06.636Z,7.33
2022-12-01T14:47:12.608Z,7.39
2022-12-01T14:49:50.960Z,7.36
2022-12-01T14:52:42.719Z,7.35
2022-12-01T14:55:36.060Z,7.34
2022-12-01T14:58:16.510Z,7.29
2022-12-01T15:01:15.264Z,7.30
2022-12-01T15:04:18.519Z,7.27
2022-12-01T15:07:00.798Z,7.26
2022-12-01T15:09:34.148Z,7.24
2022-12-01T15:12:27.394Z,7.22
2022-12-01T15:14:55.581Z,7.25
2022-12-01T15:17:32.679Z,7.22
2022-12-01T15:19:59.495Z,7.14
2022-12-01T15:22:31.406Z,7.05
2022-12-01T15:25:29.311Z,7.15
2022-12-01T15:28:16.094Z,7.14
2022-12-01T15:30:46.506Z,7.12
2022-12-01T15:33:26.802Z,7.07
2022-12-01T15:35:55.150Z,7.06
2022-12-01T15:38:28.776Z,7.09
2022-12-01T15:43:43.578Z,7.06
2022-12-01T15:46:13.304Z,7.07
2022-12-01T15:48:43.292Z,7.06
2022-12-01T15:51:17.474Z,6.94
2022-12-01T15:53:58.158Z,7.04
2022-12-01T15:56:27.602Z,7.00
2022-12-01T15:58:58.964Z,7.02
2022-12-01T16:01:30.392Z,6.95
2022-12-01T16:04:25.463Z,6.91
2022-12-01T16:06:58.395Z,6.96
2022-12-01T16:09:42.895Z,6.98
2022-12-01T16:12:09.351Z,6.99
2022-12-01T16:14:50.021Z,6.97
2022-12-01T16:17:19.671Z,6.91
2022-12-01T16:19:46.299Z,6.95
2022-12-01T16:22:22.406Z,6.95
2022-12-01T16:24:52.821Z,6.93
2022-12-01T16:27:30.967Z,6.95
2022-12-01T16:30:01.611Z,6.93
2022-12-01T16:32:38.637Z,6.92
2022-12-01T16:35:07.374Z,6.91
2022-12-01T16:37:33.992Z,6.87
2022-12-01T16:40:31.808Z,6.89
2022-12-01T16:42:58.422Z,6.90
2022-12-01T16:45:26.780Z,6.90
2022-12-01T16:47:53.914Z,6.92
2022-12-01T16:50:41.258Z,6.91
2022-12-01T16:53:10.302Z,6.85
2022-12-01T16:55:55.690Z,6.88
2022-12-01T16:58:25.293Z,6.87
2022-12-01T17:00:52.837Z,6.85
2022-12-01T17:03:25.452Z,6.80
2022-12-01T17:05:53.329Z,6.81
2022-12-01T17:08:20.348Z,6.76
2022-12-01T17:10:50.251Z,6.82
2022-12-01T17:13:23.317Z,6.80
2022-12-01T17:15:52.820Z,6.80
2022-12-01T17:18:23.273Z,6.82
2022-12-01T17:21:01.036Z,6.75
2022-12-01T17:23:28.307Z,6.75
2022-12-01T17:25:54.925Z,6.77
2022-12-01T17:28:21.988Z,6.76
2022-12-01T17:30:48.590Z,6.75
2022-12-01T17:33:15.363Z,6.70
2022-12-01T17:35:41.890Z,6.73
2022-12-01T17:38:08.672Z,6.73
2022-12-01T17:40:35.300Z,6.74
2022-12-01T17:43:06.685Z,6.73
2022-12-01T17:45:33.862Z,6.72
2022-12-01T17:48:00.446Z,6.72
2022-12-01T17:50:26.992Z,6.73
2022-12-01T17:52:53.577Z,6.71
2022-12-01T17:55:20.175Z,6.71
2022-12-01T17:57:46.947Z,6.71
2022-12-01T18:00:14.271Z,6.69
2022-12-01T18:02:43.256Z,6.68
2022-12-01T18:05:12.146Z,6.59
2022-12-01T18:07:38.927Z,6.61
2022-12-01T18:10:08.266Z,6.66
2022-12-01T18:12:34.849Z,6.68
2022-12-01T18:15:03.666Z,6.69
2022-12-01T18:17:30.329Z,6.61
2022-12-01T18:19:56.873Z,6.66
2022-12-01T18:22:23.424Z,6.66
2022-12-01T18:24:50.266Z,6.62
2022-12-01T18:27:19.250Z,6.38
2022-12-01T18:29:45.756Z,6.58
2022-12-01T18:32:14.950Z,6.58
2022-12-01T18:34:44.029Z,6.55
2022-12-01T18:37:10.745Z,6.57
2022-12-01T18:39:37.450Z,6.46
2022-12-01T18:42:04.441Z,6.54
2022-12-01T18:44:31.120Z,6.53
2022-12-01T18:46:59.027Z,6.52
2022-12-01T18:49:25.686Z,6.50
2022-12-01T18:51:52.303Z,6.42
2022-12-01T18:54:18.882Z,6.53
2022-12-01T18:56:45.535Z,6.54
2022-12-01T18:59:13.605Z,6.54
2022-12-01T19:01:43.931Z,6.50
2022-12-01T19:04:11.448Z,6.46
2022-12-01T19:06:41.801Z,6.53
2022-12-01T19:09:12.850Z,6.53
2022-12-01T19:11:40.648Z,6.44
2022-12-01T19:14:08.269Z,6.50
2022-12-01T19:16:34.990Z,6.50
2022-12-01T19:19:01.712Z,6.48
2022-12-01T19:21:30.725Z,6.51
2022-12-01T19:23:57.239Z,6.53
2022-12-01T19:26:25.547Z,6.38
2022-12-01T19:28:52.263Z,6.48
2022-12-01T19:31:23.932Z,6.43
2022-12-01T19:33:52.671Z,6.47
2022-12-01T19:36:22.118Z,6.44
2022-12-01T19:38:48.963Z,6.47
2022-12-01T19:41:16.725Z,6.40
2022-12-01T19:43:43.346Z,6.43
2022-12-01T19:46:22.732Z,6.45
2022-12-01T19:48:55.341Z,6.39
2022-12-01T19:51:28.277Z,6.45
2022-12-01T19:53:55.611Z,6.46
2022-12-01T19:56:22.689Z,6.43
2022-12-01T19:58:52.262Z,6.46
2022-12-01T20:01:19.912Z,6.46
2022-12-01T20:03:50.936Z,6.45
2022-12-01T20:06:20.186Z,6.40
2022-12-01T20:08:53.213Z,6.50
2022-12-01T20:11:19.966Z,6.49
2022-12-01T20:13:47.512Z,6.50
2022-12-01T20:16:17.087Z,6.54
2022-12-01T20:18:46.487Z,6.48
2022-12-01T20:21:19.650Z,6.42
2022-12-01T20:23:58.812Z,6.48
2022-12-01T20:26:31.057Z,6.55
2022-12-01T20:29:01.209Z,6.57
2022-12-01T20:31:32.169Z,6.52
2022-12-01T20:34:01.365Z,6.50
2022-12-01T20:36:28.316Z,6.51
2022-12-01T20:38:55.629Z,6.45
2022-12-01T20:41:22.675Z,6.50
2022-12-01T20:43:49.365Z,6.51
2022-12-01T20:46:19.614Z,6.50
2022-12-01T20:48:46.228Z,6.50
2022-12-01T20:51:14.672Z,6.45
2022-12-01T20:53:59.665Z,6.46
2022-12-01T20:56:28.253Z,6.54
2022-12-01T20:58:54.998Z,6.51
2022-12-01T21:01:22.543Z,6.49
2022-12-01T21:03:50.990Z,6.55
2022-12-01T21:06:18.349Z,6.52
2022-12-01T21:08:46.772Z,6.54
2022-12-01T21:11:45.088Z,6.54
2022-12-01T21:15:10.008Z,6.51
2022-12-01T21:17:49.184Z,6.49
2022-12-01T21:20:30.226Z,6.54
2022-12-01T21:23:11.228Z,6.49
2022-12-01T21:25:39.775Z,6.38
2022-12-01T21:28:23.656Z,6.46
2022-12-01T21:30:58.580Z,6.39
2022-12-01T21:33:34.069Z,6.44
2022-12-01T21:36:02.724Z,6.42
2022-12-01T21:38:31.796Z,6.38
2022-12-01T21:40:58.390Z,6.20
2022-12-01T21:43:25.891Z,6.39
2022-12-01T21:45:56.842Z,6.42
2022-12-01T21:48:26.145Z,6.39
2022-12-01T21:51:11.793Z,6.35
2022-12-01T21:53:39.344Z,6.38
2022-12-01T21:56:12.891Z,6.39
2022-12-01T21:58:39.460Z,6.37
2022-12-01T22:01:27.215Z,6.36
2022-12-01T22:04:01.651Z,6.30
2022-12-01T22:06:36.064Z,6.31
2022-12-01T22:09:14.479Z,6.29
2022-12-01T22:11:43.050Z,6.29
2022-12-01T22:14:15.528Z,6.22
2022-12-01T22:16:45.219Z,6.25
2022-12-01T22:19:28.801Z,6.26
2022-12-01T22:22:10.699Z,6.26
2022-12-01T22:24:56.095Z,6.25
2022-12-01T22:27:35.896Z,6.16
2022-12-01T22:30:02.477Z,6.23
2022-12-01T22:32:44.480Z,6.04
2022-12-01T22:35:17.192Z,6.13
2022-12-01T22:38:07.084Z,6.14
2022-12-01T22:40:36.630Z,6.16
2022-12-01T22:43:18.246Z,6.17
2022-12-01T22:45:49.355Z,6.10
2022-12-01T22:48:36.230Z,6.12
2022-12-01T22:51:18.013Z,6.09
2022-12-01T22:53:46.161Z,6.07
2022-12-01T22:56:34.683Z,6.07
2022-12-01T22:59:10.603Z,6.03
2022-12-01T23:02:02.177Z,6.00
2022-12-01T23:04:33.310Z,6.06
2022-12-01T23:07:08.799Z,6.11
2022-12-01T23:09:41.285Z,6.10
2022-12-01T23:12:10.812Z,6.10
2022-12-01T23:14:44.541Z,6.01
2022-12-01T23:17:26.798Z,6.08
2022-12-01T23:20:02.428Z,6.10
2022-12-01T23:22:31.328Z,6.09
2022-12-01T23:25:14.014Z,6.10
2022-12-01T23:27:42.216Z,6.13
2022-12-01T23:30:13.095Z,6.14
2022-12-01T23:32:40.074Z,6.08
2022-12-01T23:35:13.410Z,6.13
2022-12-01T23:37:42.507Z,6.09
2022-12-01T23:40:20.513Z,6.06
2022-12-01T23:42:47.984Z,6.01
2022-12-01T23:45:23.367Z,6.07
2022-12-01T23:47:51.439Z,6.06
2022-12-01T23:50:24.454Z,6.05
2022-12-01T23:52:51.574Z,6.01
2022-12-01T23:55:27.286Z,5.99
2022-12-01T23:57:54.209Z,5.99
